Cercs-Sant Jordi





Hora UTC 15:50
Temperatura 10.8 ºC
Humitat 44.5 %
Pressió 1028.3 hPa
Pluja 0.0 mm
Velocitat vent 2.4 km/h
Direcció vent SSW
Radiació solar 132.1 W/m²

Dades diàries 2022-01-25



Hora UTC (hivern +1h; estiu +2h)
Temperatura (ºC) Humitat (%) Pressió (hPa) Velocitat vent (km/h) Precipitació (mm) Radiació solar (W/m²)
Hora UTC Aire Humitat Pressió Vel. Dir. Vel. Max Dir. Intent. màx 5 min. Rad. Sol.
00:05 1.7 63.6 1028.6 6.4 NW 6.4 NNW 0.0 0.1
00:10 1.9 62.8 1028.6 5.7 NW 16.9 WNW 0.0 0.1
00:15 2.0 61.5 1028.6 3.3 NNW 16.9 WNW 0.0 0.1
00:20 1.8 61.2 1028.6 2.5 N 8.8 WNW 0.0 0.1
00:25 1.6 61.5 1028.6 1.0 NNW 6.1 NNE 0.0 0.1
00:30 1.4 61.7 1028.6 0.9 SW 6.1 SSW 0.0 0.1
00:35 1.2 62.1 1028.5 2.2 W 8.8 WNW 0.0 0.1
00:40 1.1 62.1 1028.5 1.2 NW 6.1 NW 0.0 0.1
00:45 1.0 63.1 1028.5 0.8 NE 6.1 NE 0.0 0.1
00:50 1.2 61.4 1028.5 2.4 SSE 6.1 SSW 0.0 0.1
00:55 1.0 61.3 1028.5 0.7 S 6.1 S 0.0 0.1
01:00 0.8 61.9 1028.5 2.3 W 6.1 E 0.0 0.1
01:05 0.6 62.8 1028.6 0.0 NNE 0.0 W 0.0 0.1
01:10 0.6 63.2 1028.6 0.0 NNE 0.0 S 0.0 0.1
01:15 0.7 63.6 1028.7 1.4 ENE 6.1 NE 0.0 0.1
01:20 0.7 63.9 1028.7 0.9 NE 6.1 NE 0.0 0.1
01:25 0.3 65.2 1028.7 1.7 E 6.1 E 0.0 0.1
01:30 0.2 65.6 1028.7 0.2 NE 3.4 ENE 0.0 0.1
01:35 0.1 66.6 1028.7 0.3 WSW 3.4 SW 0.0 0.2
01:40 0.1 66.1 1028.8 1.4 W 8.8 N 0.0 0.1
01:45 0.0 65.8 1028.8 0.7 WSW 3.4 SSW 0.0 0.1
01:50 -0.2 66.3 1028.9 0.0 W 3.4 W 0.0 0.1
01:55 -0.2 66.1 1028.9 1.2 WNW 6.1 N 0.0 0.2
02:00 0.0 65.0 1028.9 0.5 SW 3.4 SSW 0.0 0.2
02:05 0.0 64.9 1029.0 0.0 NNE 3.4 NNE 0.0 0.1
02:10 -0.1 64.7 1029.0 0.1 N 3.4 NNE 0.0 0.1
02:15 -0.1 64.9 1029.0 0.1 SSW 3.4 SSW 0.0 0.2
02:20 0.0 64.7 1029.0 1.1 ESE 6.1 ENE 0.0 0.1
02:25 0.1 63.8 1028.9 0.3 NW 6.1 NW 0.0 0.1
02:30 0.4 62.6 1028.9 2.3 N 6.1 N 0.0 0.1
02:35 0.7 61.1 1028.9 3.8 N 11.5 ENE 0.0 0.1
02:40 1.0 59.4 1028.9 1.3 W 3.4 NNE 0.0 0.1
02:45 0.6 60.7 1028.9 2.8 N 8.8 NW 0.0 0.1
02:50 1.0 58.5 1028.9 2.0 NNW 6.1 N 0.0 0.1
02:55 0.7 59.4 1028.8 2.5 N 6.1 WNW 0.0 0.1
03:00 1.0 57.7 1028.8 4.5 NNW 14.2 NW 0.0 0.1
03:05 1.3 56.9 1028.7 5.0 NNW 16.9 NNE 0.0 0.1
03:10 1.1 57.5 1028.7 2.7 WNW 6.1 WSW 0.0 0.1
03:15 0.9 57.9 1028.7 1.0 W 6.1 W 0.0 0.1
03:20 0.8 57.2 1028.6 4.7 NW 14.2 NW 0.0 0.1
03:25 1.2 54.6 1028.6 6.7 NW 14.2 WNW 0.0 0.1
03:30 1.1 56.0 1028.5 2.5 WNW 6.1 NW 0.0 0.1
03:35 1.1 55.7 1028.6 2.2 NW 11.5 NNW 0.0 0.1
03:40 1.3 54.2 1028.6 2.2 WNW 8.8 NNE 0.0 0.1
03:45 1.3 54.8 1028.5 0.9 NE 6.1 NNE 0.0 0.1
03:50 1.2 53.1 1028.5 0.9 NNE 6.1 WNW 0.0 0.1
03:55 1.2 52.9 1028.5 3.0 NW 8.8 NW 0.0 0.1
04:00 0.8 54.8 1028.5 2.0 NW 8.8 NW 0.0 0.1
04:05 0.7 55.1 1028.5 4.5 WNW 14.2 NW 0.0 0.1
04:10 0.8 54.4 1028.5 1.7 WNW 8.8 NNE 0.0 0.1
04:15 0.9 53.9 1028.5 3.2 NNW 11.5 N 0.0 0.1
04:20 1.2 51.8 1028.5 5.8 NNW 11.5 NW 0.0 0.1
04:25 0.8 53.5 1028.5 3.2 W 8.8 NW 0.0 0.1
04:30 0.9 53.8 1028.5 1.1 SSW 6.1 SW 0.0 0.1
04:35 0.6 55.4 1028.5 0.1 SSW 3.4 SSW 0.0 0.1
04:40 0.1 57.2 1028.6 0.3 NE 3.4 NE 0.0 0.1
04:45 0.0 57.6 1028.6 0.3 SSW 3.4 SSW 0.0 0.1
04:50 -0.3 58.7 1028.6 0.1 SSW 3.4 SSW 0.0 0.1
04:55 -0.4 59.1 1028.5 0.0 NNE 0.0 WSW 0.0 0.1
05:00 -0.5 59.4 1028.5 0.0 NNE 0.0 WSW 0.0 0.2
05:05 -0.7 60.2 1028.5 1.3 WNW 3.4 WSW 0.0 0.1
05:10 -0.8 60.4 1028.5 0.0 NNW 3.4 NW 0.0 0.2
05:15 -0.6 59.8 1028.5 0.8 SSW 3.4 NNW 0.0 0.1
05:20 -0.3 58.1 1028.6 0.3 SSW 3.4 SSW 0.0 0.1
05:25 -0.4 58.3 1028.6 0.0 NNE 0.0 SSW 0.0 0.1
05:30 -0.6 58.9 1028.7 0.0 NNE 0.0 SSW 0.0 0.1
05:35 -0.6 58.7 1028.7 0.3 S 3.4 SSE 0.0 0.1
05:40 -0.7 58.8 1028.8 0.9 ENE 6.1 ENE 0.0 0.1
05:45 -0.7 58.2 1028.8 0.6 S 6.1 S 0.0 0.1
05:50 -0.6 57.4 1028.8 0.1 ESE 3.4 ESE 0.0 0.1
05:55 -0.9 58.9 1028.8 0.6 NE 3.4 ENE 0.0 0.1
06:00 -0.7 58.0 1028.8 1.5 NE 6.1 NNE 0.0 0.1
06:05 -0.8 57.6 1028.8 2.2 SW 6.1 SW 0.0 0.1
06:10 -0.8 56.9 1028.9 3.0 W 6.1 W 0.0 0.1
06:15 -0.6 55.7 1028.9 1.4 SW 6.1 SW 0.0 0.1
06:20 -0.7 56.5 1028.9 0.5 ENE 3.4 ENE 0.0 0.1
06:25 -0.8 56.4 1028.9 0.0 N 3.4 N 0.0 0.1
06:30 -0.6 55.2 1028.9 0.1 N 3.4 N 0.0 0.1
06:35 -0.7 55.6 1028.9 1.6 NNE 6.1 NE 0.0 0.1
06:40 -0.6 54.5 1028.9 1.7 NNW 6.1 NE 0.0 0.1
06:45 -0.6 54.4 1029.0 0.0 WSW 3.4 W 0.0 0.2
06:50 -0.7 55.2 1029.0 1.1 SSW 3.4 SW 0.0 0.3
06:55 -0.8 55.5 1029.0 0.3 SSW 3.4 WSW 0.0 0.7
07:00 -0.8 55.9 1029.0 0.8 ESE 3.4 SSE 0.0 1.4
07:05 -0.8 55.4 1029.1 0.3 NE 3.4 NE 0.0 2.5
07:10 -0.8 54.8 1029.1 1.1 ENE 6.1 ENE 0.0 3.7
07:15 -0.7 54.7 1029.2 0.8 NE 6.1 NE 0.0 5.2
07:20 -0.9 56.7 1029.2 0.2 SSW 3.4 SSW 0.0 6.9
07:25 -1.1 57.9 1029.2 1.0 NE 6.1 NE 0.0 8.5
07:30 -1.1 57.9 1029.2 0.0 NE 3.4 NE 0.0 10.1
07:35 -1.2 58.1 1029.2 0.3 NE 3.4 NE 0.0 11.6
07:40 -1.3 58.1 1029.2 1.6 S 3.4 SW 0.0 14.0
07:45 -1.1 57.7 1029.2 2.0 SW 6.1 SSW 0.0 18.3
07:50 -1.0 57.2 1029.3 0.0 NNE 0.0 SW 0.0 19.9
07:55 -0.7 55.8 1029.3 1.3 ENE 6.1 E 0.0 21.4
08:00 -0.2 53.5 1029.2 0.8 ENE 3.4 ENE 0.0 23.0
08:05 0.2 52.3 1029.2 2.0 NE 6.1 NE 0.0 24.4
08:10 0.7 50.6 1029.2 1.9 S 6.1 SSW 0.0 25.7
08:15 0.6 54.6 1029.3 0.8 SW 6.1 W 0.0 27.2
08:20 0.8 52.6 1029.3 1.2 S 6.1 SW 0.0 28.9
08:25 0.9 53.5 1029.2 3.6 S 6.1 SSW 0.0 30.7
08:30 1.0 51.5 1029.3 0.8 S 6.1 SSW 0.0 135.1
08:35 1.2 50.2 1029.3 0.0 NNE 0.0 SSW 0.0 184.0
08:40 1.5 51.3 1029.3 2.4 S 6.1 S 0.0 195.5
08:45 1.7 52.1 1029.2 3.0 S 6.1 S 0.0 207.1
08:50 2.3 50.1 1029.2 2.2 S 6.1 S 0.0 218.7
08:55 3.0 49.1 1029.3 2.4 S 6.1 S 0.0 230.0
09:00 3.7 48.0 1029.3 0.2 SSW 6.1 SSW 0.0 198.4
09:05 4.5 44.9 1029.3 0.2 SSE 3.4 SSW 0.0 61.6
09:10 4.7 45.3 1029.3 2.1 SE 6.1 SE 0.0 247.4
09:15 3.9 46.4 1029.3 1.1 E 6.1 NE 0.0 272.8
09:20 3.5 48.1 1029.3 0.4 SSE 3.4 SSE 0.0 283.2
09:25 3.7 47.5 1029.3 1.3 SE 6.1 SE 0.0 293.3
09:30 4.1 46.1 1029.3 0.4 ENE 3.4 ENE 0.0 303.0
09:35 5.4 44.1 1029.3 2.2 S 6.1 S 0.0 313.6
09:40 5.7 42.0 1029.3 1.2 SE 6.1 ESE 0.0 323.1
09:45 5.1 43.2 1029.4 1.0 ENE 6.1 ENE 0.0 332.1
09:50 5.1 43.4 1029.4 0.3 S 3.4 SSW 0.0 341.5
09:55 5.8 43.1 1029.4 2.1 S 6.1 S 0.0 350.6
10:00 6.7 40.7 1029.5 1.6 SE 6.1 SE 0.0 359.4
10:05 6.9 39.4 1029.5 1.0 SSE 6.1 SSW 0.0 367.1
10:10 6.6 39.5 1029.5 2.1 E 6.1 ENE 0.0 374.7
10:15 6.4 39.8 1029.4 1.8 ENE 6.1 E 0.0 381.9
10:20 6.7 39.3 1029.4 0.9 E 6.1 ENE 0.0 389.7
10:25 7.0 38.1 1029.4 0.6 ESE 6.1 SE 0.0 396.5
10:30 7.4 38.0 1029.4 1.7 SE 8.8 SE 0.0 403.5
10:35 7.8 36.8 1029.4 0.9 SSE 6.1 SW 0.0 409.9
10:40 8.1 36.0 1029.4 1.0 ESE 3.4 SE 0.0 415.7
10:45 8.1 35.9 1029.3 2.5 E 6.1 ENE 0.0 420.5
10:50 8.1 36.2 1029.3 3.1 ENE 6.1 ENE 0.0 426.2
10:55 8.2 35.7 1029.3 2.9 ENE 6.1 ENE 0.0 431.4
11:00 8.5 34.9 1029.3 1.1 ENE 3.4 E 0.0 436.1
11:05 9.0 33.8 1029.3 0.7 E 6.1 ESE 0.0 439.9
11:10 9.4 34.1 1029.2 2.0 ESE 6.1 SE 0.0 443.6
11:15 9.6 35.5 1029.2 1.9 E 6.1 ESE 0.0 447.5
11:20 9.3 36.5 1029.1 5.4 ENE 8.8 ENE 0.0 450.4
11:25 9.3 37.4 1029.1 3.0 ESE 8.8 SE 0.0 454.1
11:30 10.0 37.2 1029.1 3.0 SE 8.8 SSE 0.0 456.5
11:35 10.3 37.1 1029.1 1.3 ESE 6.1 SSW 0.0 458.6
11:40 10.6 37.3 1029.0 3.5 SSE 8.8 SE 0.0 460.4
11:45 11.0 37.2 1029.0 2.8 S 8.8 SSW 0.0 461.8
11:50 11.5 37.1 1029.0 4.4 SSW 8.8 SSW 0.0 462.5
11:55 11.4 38.4 1028.9 5.1 S 11.5 SSE 0.0 464.2
12:00 11.8 38.5 1028.9 3.8 S 8.8 SSW 0.0 464.7
12:05 12.1 37.4 1028.9 3.1 SSE 8.8 SSW 0.0 464.0
12:10 11.7 37.2 1028.8 5.6 E 11.5 ENE 0.0 461.0
12:15 11.2 37.8 1028.8 5.4 E 11.5 E 0.0 459.1
12:20 11.3 36.7 1028.8 5.0 ESE 11.5 SE 0.0 457.7
12:25 11.3 36.2 1028.7 6.4 ESE 11.5 ESE 0.0 456.9
12:30 11.5 35.7 1028.7 4.7 E 11.5 ENE 0.0 455.8
12:35 11.7 35.1 1028.6 5.5 E 14.2 ESE 0.0 455.1
12:40 11.8 35.7 1028.6 4.9 E 11.5 S 0.0 452.1
12:45 11.7 36.7 1028.5 4.7 E 11.5 NE 0.0 449.0
12:50 11.8 37.1 1028.5 4.3 ESE 14.2 ESE 0.0 445.4
12:55 11.7 37.7 1028.5 4.3 E 8.8 NE 0.0 441.4
13:00 12.0 37.4 1028.4 4.7 ESE 8.8 SE 0.0 437.5
13:05 11.7 38.5 1028.4 5.4 ESE 14.2 ESE 0.0 431.4
13:10 12.1 38.1 1028.4 2.7 SE 14.2 SW 0.0 426.7
13:15 12.2 38.1 1028.3 3.6 ESE 8.8 ESE 0.0 422.5
13:20 12.3 38.3 1028.3 3.0 ESE 11.5 ESE 0.0 417.1
13:25 12.4 38.5 1028.3 3.5 ESE 8.8 SE 0.0 411.8
13:30 12.2 39.4 1028.2 4.8 ESE 11.5 ENE 0.0 405.1
13:35 12.5 39.1 1028.2 4.3 ESE 11.5 E 0.0 399.9
13:40 12.6 38.9 1028.1 3.3 SE 8.8 SE 0.0 394.1
13:45 12.7 39.0 1028.1 3.8 S 11.5 S 0.0 385.9
13:50 13.1 38.4 1028.1 2.4 S 8.8 SSW 0.0 379.1
13:55 13.2 37.9 1028.0 4.8 SSE 11.5 S 0.0 370.2
14:00 13.2 37.9 1028.0 3.5 SE 8.8 SE 0.0 362.4
14:05 13.1 38.0 1028.0 4.6 SSE 16.9 SSE 0.0 352.6
14:10 12.7 38.4 1028.0 6.2 SE 14.2 SE 0.0 341.2
14:15 12.4 39.0 1028.0 5.8 SSE 14.2 SSE 0.0 331.8
14:20 12.6 38.4 1028.0 6.5 SSE 14.2 SSE 0.0 322.9
14:25 12.6 38.1 1028.0 4.5 SE 14.2 NNE 0.0 313.9
14:30 12.5 38.3 1028.0 4.9 SE 11.5 S 0.0 305.3
14:35 12.5 38.4 1028.0 5.8 SSE 11.5 SSE 0.0 289.4
14:40 12.7 37.8 1028.1 3.7 SSE 11.5 SE 0.0 279.7
14:45 12.7 37.9 1028.1 4.5 SSE 11.5 SSE 0.0 277.5
14:50 12.6 38.2 1028.1 5.0 SE 11.5 S 0.0 267.2
14:55 12.5 39.2 1028.1 4.2 S 8.8 SSE 0.0 256.8
15:00 12.1 40.1 1028.1 3.6 S 8.8 SSE 0.0 246.9
15:05 11.9 41.0 1028.2 4.6 S 8.8 SSW 0.0 235.9
15:10 11.7 41.7 1028.2 1.8 SW 8.8 WSW 0.0 224.9
15:15 11.9 41.2 1028.2 0.9 WSW 6.1 S 0.0 214.1
15:20 11.9 41.7 1028.2 0.7 W 6.1 W 0.0 202.1
15:25 11.7 41.7 1028.2 1.8 SE 6.1 SW 0.0 190.2
15:30 11.4 42.6 1028.2 2.2 SSW 6.1 SSW 0.0 178.6
15:35 11.4 43.0 1028.2 1.2 S 6.1 SSW 0.0 167.2
15:40 11.5 42.7 1028.2 0.1 S 3.4 SW 0.0 155.7
15:45 11.4 43.2 1028.3 1.2 SSE 6.1 S 0.0 144.2
15:50 10.8 44.5 1028.3 2.4 SSW 6.1 S 0.0 132.1
Màxima 13.3 66.6 1029.5 6.7 NW 16.9 SSE 0.0 464.7
Mínima -1.4 33.8 1028.0
Total 0.0